createdAt,value
2018-09-17T00:01:43.817Z,3.30
2018-09-17T00:04:12.373Z,3.27
2018-09-17T00:06:40.905Z,3.80
2018-09-17T00:09:10.942Z,3.67
2018-09-17T00:11:39.578Z,3.63
2018-09-17T00:14:08.089Z,3.50
2018-09-17T00:16:36.998Z,3.47
2018-09-17T00:19:05.761Z,3.73
2018-09-17T00:21:34.711Z,3.87
2018-09-17T00:24:03.242Z,4.25
2018-09-17T00:26:31.808Z,4.10
2018-09-17T00:29:00.346Z,3.27
2018-09-17T00:31:28.875Z,3.10
2018-09-17T00:33:57.775Z,3.63
2018-09-17T00:36:26.326Z,3.90
2018-09-17T00:38:54.833Z,3.73
2018-09-17T00:41:23.373Z,3.47
2018-09-17T00:43:51.892Z,3.30
2018-09-17T00:46:20.442Z,3.30
2018-09-17T00:48:48.996Z,3.20
2018-09-17T00:51:18.125Z,3.13
2018-09-17T00:53:46.646Z,3.47
2018-09-17T00:56:15.478Z,3.43
2018-09-17T00:58:43.994Z,3.23
2018-09-17T01:01:12.549Z,2.67
2018-09-17T01:03:41.067Z,3.00
2018-09-17T01:06:09.598Z,3.73
2018-09-17T01:08:38.118Z,2.97
2018-09-17T01:11:06.681Z,3.50
2018-09-17T01:13:35.198Z,3.07
2018-09-17T01:16:03.725Z,2.93
2018-09-17T01:18:32.261Z,3.10
2018-09-17T01:21:00.821Z,3.37
2018-09-17T01:23:29.330Z,3.40
2018-09-17T01:25:57.845Z,3.27
2018-09-17T01:28:26.345Z,3.20
2018-09-17T01:30:54.865Z,3.00
2018-09-17T01:33:23.861Z,2.67
2018-09-17T01:35:52.373Z,3.17
2018-09-17T01:38:20.930Z,3.10
2018-09-17T01:40:49.473Z,3.10
2018-09-17T01:43:18.570Z,3.10
2018-09-17T01:45:47.158Z,3.07
2018-09-17T01:48:15.670Z,3.40
2018-09-17T01:50:44.191Z,2.57
2018-09-17T01:53:12.715Z,2.70
2018-09-17T01:55:41.237Z,2.90
2018-09-17T01:58:09.783Z,2.73
2018-09-17T02:00:38.290Z,2.43
2018-09-17T02:03:07.023Z,2.60
2018-09-17T02:05:35.526Z,2.70
2018-09-17T02:08:04.097Z,2.67
2018-09-17T02:10:32.593Z,3.13
2018-09-17T02:13:01.087Z,2.37
2018-09-17T02:15:29.605Z,2.60
2018-09-17T02:17:58.113Z,3.00
2018-09-17T02:20:26.685Z,2.67
2018-09-17T02:22:55.249Z,2.83
2018-09-17T02:25:23.909Z,2.80
2018-09-17T02:27:52.457Z,3.00
2018-09-17T02:30:21.022Z,2.97
2018-09-17T02:32:49.538Z,2.90
2018-09-17T02:35:18.054Z,3.47
2018-09-17T02:37:46.570Z,2.87
2018-09-17T02:40:16.597Z,3.40
2018-09-17T02:42:47.077Z,3.00
2018-09-17T02:45:15.581Z,3.00
2018-09-17T02:47:44.201Z,3.37
2018-09-17T02:50:12.742Z,3.23
2018-09-17T02:52:41.326Z,3.63
2018-09-17T02:55:10.210Z,3.60
2018-09-17T02:57:38.924Z,3.40
2018-09-17T03:00:08.853Z,3.83
2018-09-17T03:02:37.914Z,3.73
2018-09-17T03:05:06.581Z,4.20
2018-09-17T03:07:35.077Z,4.13
2018-09-17T03:10:03.655Z,4.43
2018-09-17T03:12:32.175Z,3.87
2018-09-17T03:15:10.736Z,4.47
2018-09-17T03:17:39.245Z,4.87
2018-09-17T03:20:07.780Z,4.40
2018-09-17T03:24:00.778Z,4.40
2018-09-17T03:26:29.289Z,4.57
2018-09-17T03:28:57.786Z,4.10
2018-09-17T03:31:26.313Z,4.10
2018-09-17T03:33:54.922Z,4.57
2018-09-17T03:36:23.421Z,4.00
2018-09-17T03:38:51.938Z,4.00
2018-09-17T03:41:20.799Z,4.40
2018-09-17T03:43:51.438Z,4.20
2018-09-17T03:46:19.964Z,4.70
2018-09-17T03:48:48.493Z,4.27
2018-09-17T03:51:17.390Z,4.30
2018-09-17T03:53:45.893Z,4.87
2018-09-17T03:56:14.421Z,4.10
2018-09-17T03:58:42.925Z,4.10
2018-09-17T04:01:11.445Z,4.30
2018-09-17T04:03:39.961Z,4.70
2018-09-17T04:06:08.501Z,4.43
2018-09-17T04:08:37.022Z,4.60
2018-09-17T04:11:05.533Z,4.70
2018-09-17T04:13:34.102Z,4.80
2018-09-17T04:16:02.627Z,4.80
2018-09-17T04:18:31.145Z,4.50
2018-09-17T04:20:59.670Z,4.70
2018-09-17T04:23:37.079Z,4.67
2018-09-17T04:26:08.937Z,4.83
2018-09-17T04:28:38.042Z,4.80
2018-09-17T04:31:06.897Z,5.20
2018-09-17T04:33:38.135Z,5.23
2018-09-17T04:36:06.954Z,5.07
2018-09-17T04:38:35.501Z,5.83
2018-09-17T04:41:04.141Z,5.27
2018-09-17T04:43:33.223Z,4.90
2018-09-17T04:46:02.050Z,6.10
2018-09-17T04:48:30.693Z,5.60
2018-09-17T04:50:59.237Z,6.23
2018-09-17T04:53:27.826Z,5.53
2018-09-17T04:55:56.363Z,5.07
2018-09-17T04:58:24.885Z,5.57
2018-09-17T05:00:53.416Z,5.13
2018-09-17T05:03:22.009Z,6.03
2018-09-17T05:05:50.785Z,5.57
2018-09-17T05:08:19.333Z,5.70
2018-09-17T05:10:47.854Z,5.73
2018-09-17T05:13:16.461Z,6.57
2018-09-17T05:15:44.940Z,5.10
2018-09-17T05:18:13.494Z,5.93
2018-09-17T05:20:42.078Z,5.90
2018-09-17T05:23:10.601Z,6.13
2018-09-17T05:25:39.097Z,6.27
2018-09-17T05:28:07.611Z,5.67
2018-09-17T05:30:36.148Z,5.47
2018-09-17T05:33:04.742Z,6.00
2018-09-17T05:35:33.306Z,6.43
2018-09-17T05:38:01.874Z,6.67
2018-09-17T05:40:30.777Z,6.37
2018-09-17T05:42:59.880Z,6.13
2018-09-17T05:45:28.485Z,6.10
2018-09-17T05:47:56.997Z,6.10
2018-09-17T05:50:25.506Z,6.17
2018-09-17T05:52:54.009Z,6.95
2018-09-17T05:55:22.628Z,5.90
2018-09-17T05:57:51.153Z,6.47
2018-09-17T06:00:19.675Z,6.43
2018-09-17T06:02:48.186Z,6.60
2018-09-17T06:05:16.690Z,6.73
2018-09-17T06:07:45.201Z,6.37
2018-09-17T06:10:16.730Z,6.27
2018-09-17T06:12:47.057Z,6.63
2018-09-17T06:15:16.101Z,6.80
2018-09-17T06:17:44.610Z,6.93
2018-09-17T06:20:13.153Z,7.00
2018-09-17T06:22:41.673Z,7.23
2018-09-17T06:25:10.197Z,7.13
2018-09-17T06:27:38.711Z,6.17
2018-09-17T06:30:07.335Z,7.37
2018-09-17T06:32:35.914Z,7.43
2018-09-17T06:35:04.468Z,8.10
2018-09-17T06:37:33.012Z,7.23
2018-09-17T06:40:01.535Z,7.80
2018-09-17T06:42:30.074Z,7.00
2018-09-17T06:44:58.671Z,8.27
2018-09-17T06:47:27.186Z,7.37
2018-09-17T06:49:55.694Z,8.23
2018-09-17T06:52:24.230Z,8.33
2018-09-17T06:54:52.766Z,8.13
2018-09-17T06:57:21.304Z,7.80
2018-09-17T06:59:49.813Z,10.38
2018-09-17T07:02:18.357Z,8.87
2018-09-17T07:04:46.901Z,9.03
2018-09-17T07:07:15.413Z,9.13
2018-09-17T07:09:44.085Z,7.97
2018-09-17T07:12:12.793Z,7.67
2018-09-17T07:14:41.309Z,9.77
2018-09-17T07:17:09.842Z,9.13
2018-09-17T07:19:38.359Z,8.87
2018-09-17T07:22:06.921Z,7.33
2018-09-17T07:24:35.425Z,7.97
2018-09-17T07:27:03.941Z,8.37
2018-09-17T07:29:32.453Z,9.23
2018-09-17T07:32:00.974Z,8.00
2018-09-17T07:34:29.537Z,8.53
2018-09-17T07:36:58.221Z,7.90
2018-09-17T07:39:26.740Z,7.33
2018-09-17T07:41:55.327Z,7.97
2018-09-17T07:44:23.879Z,8.23
2018-09-17T07:46:52.437Z,7.33
2018-09-17T07:49:20.970Z,7.00
2018-09-17T07:51:49.489Z,7.90
2018-09-17T07:54:18.035Z,6.60
2018-09-17T07:56:46.804Z,7.40
2018-09-17T07:59:15.347Z,7.03
2018-09-17T08:01:43.860Z,7.50
2018-09-17T08:04:12.413Z,7.50
2018-09-17T08:06:40.961Z,7.72
2018-09-17T08:09:11.726Z,7.40
2018-09-17T08:11:40.680Z,7.40
2018-09-17T08:15:38.462Z,7.40
2018-09-17T08:18:07.022Z,7.47
2018-09-17T08:20:35.605Z,6.93
2018-09-17T08:23:04.149Z,6.20
2018-09-17T08:25:33.170Z,7.03
2018-09-17T08:28:01.801Z,7.43
2018-09-17T08:30:30.365Z,8.40
2018-09-17T08:32:59.117Z,8.73
2018-09-17T08:35:28.314Z,8.27
2018-09-17T08:37:56.946Z,7.57
2018-09-17T08:40:25.494Z,7.03
2018-09-17T08:42:54.015Z,7.57
2018-09-17T08:45:22.577Z,7.20
2018-09-17T08:47:51.489Z,7.60
2018-09-17T08:50:19.998Z,8.07
2018-09-17T08:52:48.554Z,8.33
2018-09-17T08:55:22.915Z,7.80
2018-09-17T08:57:56.381Z,8.23
2018-09-17T09:00:30.766Z,7.80
2018-09-17T09:03:04.574Z,7.87
2018-09-17T09:05:39.559Z,8.37
2018-09-17T09:08:08.676Z,8.27
2018-09-17T09:10:43.181Z,8.20
2018-09-17T09:13:15.937Z,8.67
2018-09-17T09:15:45.030Z,9.07
2018-09-17T09:18:13.633Z,8.40
2018-09-17T09:20:42.249Z,8.80
2018-09-17T09:23:10.932Z,9.73
2018-09-17T09:25:39.542Z,8.37
2018-09-17T09:28:08.094Z,8.60
2018-09-17T09:30:37.267Z,8.63
2018-09-17T09:33:05.789Z,8.70
2018-09-17T09:35:34.305Z,8.03
2018-09-17T09:38:03.017Z,7.97
2018-09-17T09:40:31.529Z,7.67
2018-09-17T09:43:00.091Z,8.43
2018-09-17T09:45:28.617Z,7.60
2018-09-17T09:47:57.122Z,7.57
2018-09-17T09:50:25.641Z,7.97
2018-09-17T09:52:54.170Z,7.10
2018-09-17T09:55:22.726Z,7.10
2018-09-17T09:57:51.239Z,7.07
2018-09-17T10:00:25.002Z,7.07
2018-09-17T10:02:58.792Z,6.13
2018-09-17T10:05:27.362Z,6.87
2018-09-17T10:07:55.919Z,6.90
2018-09-17T10:10:29.770Z,6.80
2018-09-17T10:13:03.491Z,6.77
2018-09-17T10:15:40.089Z,7.13
2018-09-17T10:18:13.985Z,6.73
2018-09-17T10:20:42.525Z,6.60
2018-09-17T10:23:11.120Z,6.73
2018-09-17T10:25:39.713Z,6.80
2018-09-17T10:28:08.259Z,6.80
2018-09-17T10:30:36.801Z,5.93
2018-09-17T10:33:05.342Z,7.27
2018-09-17T10:35:33.894Z,6.20
2018-09-17T10:38:02.582Z,6.27
2018-09-17T10:40:31.110Z,6.03
2018-09-17T10:42:59.645Z,5.70
2018-09-17T10:45:28.193Z,5.17
2018-09-17T10:47:56.805Z,3.90
2018-09-17T10:50:25.476Z,3.07
2018-09-17T10:54:18.494Z,2.73
2018-09-17T10:56:47.126Z,3.30
2018-09-17T10:59:15.666Z,2.83
2018-09-17T11:01:44.244Z,3.17
2018-09-17T11:04:12.796Z,3.00
2018-09-17T11:06:41.383Z,2.40
2018-09-17T11:09:11.645Z,2.40
2018-09-17T11:11:41.055Z,2.80
2018-09-17T11:14:09.929Z,2.93
2018-09-17T11:16:38.465Z,3.40
2018-09-17T11:19:07.876Z,3.57
2018-09-17T11:21:36.377Z,3.23
2018-09-17T11:24:04.873Z,3.27
2018-09-17T11:26:33.428Z,2.73
2018-09-17T11:29:02.006Z,2.90
2018-09-17T11:31:30.600Z,2.95
2018-09-17T11:33:59.101Z,2.57
2018-09-17T11:36:27.630Z,3.10
2018-09-17T11:38:56.242Z,2.77
2018-09-17T11:41:24.750Z,2.73
2018-09-17T11:43:53.271Z,2.60
2018-09-17T11:46:21.773Z,2.40
2018-09-17T11:48:50.302Z,2.22
2018-09-17T11:51:18.833Z,2.52
2018-09-17T11:53:47.392Z,2.10
2018-09-17T11:56:16.029Z,2.50
2018-09-17T11:58:44.574Z,2.10
2018-09-17T12:01:18.461Z,2.27
2018-09-17T12:03:52.242Z,1.90
2018-09-17T12:06:26.024Z,2.37
2018-09-17T12:08:54.557Z,2.10
2018-09-17T12:11:23.543Z,2.05
2018-09-17T12:13:52.174Z,2.22
2018-09-17T12:16:20.689Z,2.22
2018-09-17T12:18:49.212Z,2.60
2018-09-17T12:21:18.010Z,2.20
2018-09-17T12:23:46.523Z,2.25
2018-09-17T12:26:15.055Z,2.27
2018-09-17T12:28:43.581Z,1.82
2018-09-17T12:31:12.106Z,2.20
2018-09-17T12:33:40.722Z,2.35
2018-09-17T12:36:09.210Z,2.00
2018-09-17T12:38:38.003Z,2.25
2018-09-17T12:41:06.876Z,1.70
2018-09-17T12:43:35.420Z,2.08
2018-09-17T12:46:03.946Z,1.82
2018-09-17T12:48:32.561Z,1.67
2018-09-17T12:51:01.401Z,1.67
2018-09-17T12:53:29.934Z,1.40
2018-09-17T12:55:58.459Z,1.72
2018-09-17T12:58:27.146Z,1.85
2018-09-17T13:00:56.285Z,1.80
2018-09-17T13:03:24.844Z,1.50
2018-09-17T13:05:53.741Z,1.87
2018-09-17T13:08:22.385Z,1.70
2018-09-17T13:10:51.323Z,1.77
2018-09-17T13:13:20.278Z,1.55
2018-09-17T13:15:55.262Z,1.90
2018-09-17T13:18:25.341Z,1.72
2018-09-17T13:20:54.469Z,1.50
2018-09-17T13:23:23.024Z,1.80
2018-09-17T13:25:51.581Z,1.90
2018-09-17T13:28:20.082Z,2.00
2018-09-17T13:30:48.622Z,1.65
2018-09-17T13:33:17.168Z,1.82
2018-09-17T13:35:45.705Z,2.50
2018-09-17T13:38:14.233Z,2.65
2018-09-17T13:40:42.745Z,2.47
2018-09-17T13:43:11.278Z,2.60
2018-09-17T13:45:39.887Z,2.87
2018-09-17T13:48:08.405Z,2.83
2018-09-17T13:50:37.025Z,3.05
2018-09-17T13:53:05.637Z,2.85
2018-09-17T13:55:34.092Z,2.67
2018-09-17T13:58:02.602Z,3.30
2018-09-17T14:00:31.133Z,3.72
2018-09-17T14:02:59.986Z,3.33
2018-09-17T14:05:28.518Z,4.00
2018-09-17T14:07:57.019Z,3.98
2018-09-17T14:10:25.627Z,3.80
2018-09-17T14:12:54.167Z,4.30
2018-09-17T14:15:22.730Z,4.08
2018-09-17T14:17:51.264Z,3.90
2018-09-17T14:20:20.261Z,4.77
2018-09-17T14:22:48.882Z,4.43
2018-09-17T14:25:17.885Z,3.72
2018-09-17T14:27:46.494Z,4.37
2018-09-17T14:30:15.042Z,3.92
2018-09-17T14:32:48.871Z,4.28
2018-09-17T14:35:17.377Z,3.90
2018-09-17T14:37:45.922Z,3.67
2018-09-17T14:40:14.465Z,3.20
2018-09-17T14:42:42.977Z,2.70
2018-09-17T14:45:11.559Z,2.87
2018-09-17T14:47:40.130Z,2.62
2018-09-17T14:50:08.708Z,2.60
2018-09-17T14:52:37.242Z,2.27
2018-09-17T14:55:05.822Z,2.55
2018-09-17T14:57:34.317Z,2.08
2018-09-17T15:00:02.967Z,2.10
2018-09-17T15:02:31.542Z,3.02
2018-09-17T15:05:00.061Z,2.75
2018-09-17T15:07:28.594Z,2.30
2018-09-17T15:09:57.148Z,2.33
2018-09-17T15:12:25.782Z,2.60
2018-09-17T15:14:54.446Z,2.37
2018-09-17T15:17:23.046Z,2.00
2018-09-17T15:19:51.568Z,2.33
2018-09-17T15:22:22.472Z,1.80
2018-09-17T15:24:51.691Z,1.90
2018-09-17T15:27:20.315Z,1.70
2018-09-17T15:29:51.222Z,2.17
2018-09-17T15:32:24.783Z,1.93
2018-09-17T15:34:54.410Z,2.03
2018-09-17T15:37:28.176Z,2.20
2018-09-17T15:40:00.897Z,2.17
2018-09-17T15:42:48.390Z,2.20
2018-09-17T15:48:48.008Z,1.80
2018-09-17T15:51:35.914Z,1.90
2018-09-17T15:54:06.485Z,2.10
2018-09-17T15:56:44.674Z,1.90
2018-09-17T15:59:38.448Z,2.08
2018-09-17T16:02:10.574Z,1.62
2018-09-17T16:04:47.512Z,1.50
2018-09-17T16:07:16.017Z,2.00
2018-09-17T16:09:44.637Z,1.90
2018-09-17T16:12:13.342Z,1.60
2018-09-17T16:14:42.082Z,2.02
2018-09-17T16:17:10.615Z,1.80
2018-09-17T16:19:39.136Z,1.50
2018-09-17T16:22:07.673Z,2.13
2018-09-17T16:24:36.193Z,1.90
2018-09-17T16:27:05.177Z,2.17
2018-09-17T16:29:33.689Z,1.65
2018-09-17T16:32:02.221Z,2.00
2018-09-17T16:34:31.133Z,1.80
2018-09-17T16:36:59.643Z,1.80
2018-09-17T16:39:28.145Z,1.90
2018-09-17T16:41:59.152Z,1.80
2018-09-17T16:44:29.449Z,1.70
2018-09-17T16:47:00.727Z,1.50
2018-09-17T16:49:31.546Z,1.80
2018-09-17T16:52:03.593Z,2.53
2018-09-17T16:54:32.127Z,2.25
2018-09-17T16:57:00.674Z,1.77
2018-09-17T16:59:29.230Z,2.20
2018-09-17T17:02:01.716Z,1.90
2018-09-17T17:04:33.853Z,1.90
2018-09-17T17:07:04.509Z,2.00
2018-09-17T17:09:34.561Z,2.20
2018-09-17T17:12:03.165Z,1.80
2018-09-17T17:14:34.387Z,1.50
2018-09-17T17:17:09.736Z,2.23
2018-09-17T17:19:41.553Z,1.80
2018-09-17T17:22:18.926Z,1.90
2018-09-17T17:24:49.255Z,2.00
2018-09-17T17:27:25.279Z,2.20
2018-09-17T17:30:02.913Z,2.30
2018-09-17T17:32:33.534Z,2.30
2018-09-17T17:35:10.548Z,2.00
2018-09-17T17:37:55.434Z,2.10
2018-09-17T17:40:30.211Z,1.97
2018-09-17T17:43:08.002Z,1.50
2018-09-17T17:45:36.564Z,2.00
2018-09-17T17:48:06.890Z,1.97
2018-09-17T17:50:37.438Z,2.03
2018-09-17T17:53:06.203Z,2.00
2018-09-17T17:55:37.519Z,2.23
2018-09-17T17:58:14.409Z,2.50
2018-09-17T18:00:47.004Z,2.27
2018-09-17T18:03:16.135Z,3.37
2018-09-17T18:05:45.141Z,2.75
2018-09-17T18:08:14.429Z,2.33
2018-09-17T18:10:47.525Z,3.17
2018-09-17T18:13:25.176Z,2.77
2018-09-17T18:15:56.976Z,2.03
2018-09-17T18:18:25.551Z,2.80
2018-09-17T18:20:55.039Z,2.40
2018-09-17T18:23:23.699Z,2.53
2018-09-17T18:25:52.691Z,3.10
2018-09-17T18:28:21.239Z,3.50
2018-09-17T18:30:49.954Z,2.90
2018-09-17T18:33:18.619Z,3.20
2018-09-17T18:35:47.357Z,2.63
2018-09-17T18:38:16.401Z,3.17
2018-09-17T18:40:45.431Z,3.83
2018-09-17T18:43:14.026Z,3.40
2018-09-17T18:45:42.562Z,3.30
2018-09-17T18:48:11.180Z,3.20
2018-09-17T18:50:39.679Z,3.17
2018-09-17T18:53:08.213Z,3.47
2018-09-17T18:55:36.789Z,3.00
2018-09-17T18:58:05.306Z,2.70
2018-09-17T19:00:33.811Z,3.07
2018-09-17T19:03:02.353Z,2.57
2018-09-17T19:05:30.877Z,2.93
2018-09-17T19:07:59.426Z,3.03
2018-09-17T19:10:27.948Z,3.30
2018-09-17T19:12:56.493Z,3.30
2018-09-17T19:15:30.446Z,3.47
2018-09-17T19:18:04.421Z,3.57
2018-09-17T19:20:33.070Z,4.67
2018-09-17T19:23:06.922Z,3.83
2018-09-17T19:25:35.478Z,3.63
2018-09-17T19:28:09.412Z,3.60
2018-09-17T19:30:37.934Z,2.90
2018-09-17T19:33:06.485Z,3.10
2018-09-17T19:35:35.053Z,2.90
2018-09-17T19:38:09.246Z,2.73
2018-09-17T19:40:37.762Z,2.97
2018-09-17T19:43:06.315Z,3.17
2018-09-17T19:45:40.079Z,2.83
2018-09-17T19:48:08.688Z,3.23
2018-09-17T19:50:42.520Z,3.03
2018-09-17T19:53:11.097Z,2.70
2018-09-17T19:55:39.716Z,3.07
2018-09-17T19:58:13.958Z,3.23
2018-09-17T20:00:42.523Z,2.93
2018-09-17T20:03:11.010Z,3.50
2018-09-17T20:05:44.781Z,3.00
2018-09-17T20:08:13.414Z,3.33
2018-09-17T20:10:41.995Z,3.20
2018-09-17T20:13:10.513Z,3.17
2018-09-17T20:15:39.027Z,2.70
2018-09-17T20:18:07.558Z,3.30
2018-09-17T20:20:36.361Z,3.27
2018-09-17T20:23:04.920Z,3.00
2018-09-17T20:25:33.407Z,3.30
2018-09-17T20:28:01.985Z,3.40
2018-09-17T20:30:30.534Z,3.40
2018-09-17T20:32:59.177Z,3.13
2018-09-17T20:35:27.746Z,2.60
2018-09-17T20:37:56.280Z,3.20
2018-09-17T20:40:24.890Z,3.13
2018-09-17T20:42:53.391Z,2.90
2018-09-17T20:45:21.921Z,3.30
2018-09-17T20:47:50.594Z,3.07
2018-09-17T20:50:19.134Z,3.53
2018-09-17T20:52:47.711Z,3.30
2018-09-17T20:55:16.283Z,3.20
2018-09-17T20:57:45.182Z,3.17
2018-09-17T21:00:13.761Z,3.07
2018-09-17T21:02:42.378Z,3.23
2018-09-17T21:05:10.859Z,3.53
2018-09-17T21:07:39.464Z,3.23
2018-09-17T21:10:08.033Z,3.60
2018-09-17T21:12:36.685Z,2.70
2018-09-17T21:15:05.162Z,3.13
2018-09-17T21:17:33.658Z,2.93
2018-09-17T21:20:02.330Z,3.27
2018-09-17T21:22:30.870Z,3.10
2018-09-17T21:24:59.529Z,2.67
2018-09-17T21:27:28.049Z,3.07
2018-09-17T21:29:56.569Z,2.47
2018-09-17T21:32:25.156Z,2.73
2018-09-17T21:34:53.928Z,2.43
2018-09-17T21:37:22.495Z,2.63
2018-09-17T21:39:51.001Z,2.87
2018-09-17T21:42:19.510Z,2.60
2018-09-17T21:44:48.024Z,2.70
2018-09-17T21:47:16.558Z,2.70
2018-09-17T21:49:45.106Z,2.63
2018-09-17T21:52:13.621Z,2.90
2018-09-17T21:54:42.140Z,2.73
2018-09-17T21:57:10.953Z,3.00
2018-09-17T21:59:39.538Z,2.37
2018-09-17T22:02:08.074Z,2.60
2018-09-17T22:04:37.015Z,2.77
2018-09-17T22:07:05.633Z,2.30
2018-09-17T22:09:34.133Z,2.60
2018-09-17T22:12:02.669Z,2.77
2018-09-17T22:14:31.252Z,3.07
2018-09-17T22:16:59.893Z,2.63
2018-09-17T22:19:28.438Z,2.50
2018-09-17T22:21:56.950Z,3.03
2018-09-17T22:24:25.513Z,3.30
2018-09-17T22:26:54.031Z,2.50
2018-09-17T22:29:22.529Z,2.70
2018-09-17T22:31:51.143Z,3.20
2018-09-17T22:34:19.679Z,2.60
2018-09-17T22:36:48.246Z,2.90
2018-09-17T22:39:16.770Z,3.00
2018-09-17T22:41:59.949Z,3.10
2018-09-17T22:44:28.513Z,2.63
2018-09-17T22:46:57.119Z,3.00
2018-09-17T22:49:25.692Z,3.40
2018-09-17T22:51:54.276Z,2.93
2018-09-17T22:54:22.773Z,4.07
2018-09-17T22:56:51.294Z,3.60
2018-09-17T22:59:19.817Z,3.67
2018-09-17T23:01:48.378Z,3.47
2018-09-17T23:04:16.927Z,3.57
2018-09-17T23:06:45.429Z,3.63
2018-09-17T23:09:13.929Z,3.73
2018-09-17T23:11:42.465Z,3.37
2018-09-17T23:14:10.973Z,3.43
2018-09-17T23:16:39.484Z,3.87
2018-09-17T23:19:07.982Z,4.33
2018-09-17T23:21:36.486Z,3.23
2018-09-17T23:24:05.005Z,3.33
2018-09-17T23:26:33.730Z,3.57
2018-09-17T23:29:02.225Z,3.70
2018-09-17T23:31:30.773Z,4.10
2018-09-17T23:33:59.302Z,3.40
2018-09-17T23:36:27.834Z,3.27
2018-09-17T23:38:56.360Z,3.60
2018-09-17T23:41:24.857Z,3.03
2018-09-17T23:43:53.377Z,2.63
2018-09-17T23:46:21.893Z,2.60
2018-09-17T23:48:50.441Z,2.97
2018-09-17T23:51:18.950Z,2.77
2018-09-17T23:53:47.445Z,3.10
2018-09-17T23:56:15.964Z,3.40
2018-09-17T23:58:44.478Z,2.90
